createdAt,value
2022-09-23T00:00:20.182Z,6.94
2022-09-23T00:03:22.494Z,6.95
2022-09-23T00:06:25.458Z,6.84
2022-09-23T00:09:27.676Z,6.87
2022-09-23T00:12:29.861Z,6.91
2022-09-23T00:15:37.917Z,6.89
2022-09-23T00:18:42.118Z,6.91
2022-09-23T00:21:44.395Z,6.88
2022-09-23T00:24:46.611Z,6.89
2022-09-23T00:27:48.783Z,7.11
2022-09-23T00:30:51.363Z,7.11
2022-09-23T00:33:59.356Z,7.12
2022-09-23T00:37:01.534Z,7.25
2022-09-23T00:40:04.049Z,7.22
2022-09-23T00:43:06.243Z,7.22
2022-09-23T00:46:11.589Z,7.09
2022-09-23T00:49:29.472Z,7.12
2022-09-23T00:52:32.301Z,7.13
2022-09-23T00:55:46.147Z,7.18
2022-09-23T00:58:49.592Z,7.13
2022-09-23T01:01:57.214Z,6.99
2022-09-23T01:05:03.260Z,6.96
2022-09-23T01:08:07.084Z,6.92
2022-09-23T01:11:23.853Z,6.89
2022-09-23T01:14:52.830Z,6.92
2022-09-23T01:18:16.610Z,6.95
2022-09-23T01:21:39.115Z,7.02
2022-09-23T01:24:51.108Z,6.95
2022-09-23T01:28:24.100Z,6.96
2022-09-23T01:31:46.147Z,6.75
2022-09-23T01:34:58.955Z,6.68
2022-09-23T01:38:17.145Z,6.94
2022-09-23T01:42:09.623Z,6.95
2022-09-23T01:45:17.247Z,6.96
2022-09-23T01:48:26.802Z,6.91
2022-09-23T01:51:43.350Z,6.88
2022-09-23T01:54:54.839Z,6.65
2022-09-23T01:58:05.922Z,6.54
2022-09-23T02:01:11.403Z,6.54
2022-09-23T02:04:22.343Z,6.63
2022-09-23T02:07:31.030Z,6.54
2022-09-23T02:10:41.028Z,6.57
2022-09-23T02:14:00.229Z,6.60
2022-09-23T02:17:09.586Z,6.38
2022-09-23T02:20:15.832Z,5.72
2022-09-23T02:23:50.630Z,5.38
2022-09-23T02:27:03.188Z,5.23
2022-09-23T02:30:22.251Z,5.32
2022-09-23T02:33:43.436Z,5.51
2022-09-23T02:37:06.527Z,5.62
2022-09-23T02:40:13.821Z,5.71
2022-09-23T02:43:57.693Z,5.71
2022-09-23T02:47:00.509Z,5.68
2022-09-23T02:50:06.402Z,5.65
2022-09-23T02:53:08.747Z,5.62
2022-09-23T02:56:20.171Z,5.68
2022-09-23T02:59:23.770Z,5.80
2022-09-23T03:02:49.259Z,5.85
2022-09-23T03:05:56.461Z,5.89
2022-09-23T03:09:21.955Z,5.95
2022-09-23T03:12:30.452Z,5.90
2022-09-23T03:15:59.583Z,5.83
2022-09-23T03:19:24.167Z,5.86
2022-09-23T03:22:39.367Z,5.96
2022-09-23T03:25:45.788Z,5.95
2022-09-23T03:28:50.300Z,5.80
2022-09-23T03:31:53.827Z,5.90
2022-09-23T03:34:58.956Z,5.82
2022-09-23T03:38:16.885Z,5.79
2022-09-23T03:41:29.002Z,5.83
2022-09-23T03:44:37.798Z,5.80
2022-09-23T03:47:40.594Z,5.82
2022-09-23T03:50:42.794Z,5.83
2022-09-23T03:53:44.976Z,5.99
2022-09-23T03:56:50.786Z,5.99
2022-09-23T03:59:53.087Z,5.88
2022-09-23T04:02:55.304Z,5.92
2022-09-23T04:05:57.488Z,5.98
2022-09-23T04:08:59.891Z,5.83
2022-09-23T04:12:03.560Z,5.86
2022-09-23T04:15:06.358Z,5.88
2022-09-23T04:18:09.321Z,5.75
2022-09-23T04:21:11.635Z,5.79
2022-09-23T04:24:14.835Z,5.73
2022-09-23T04:27:17.001Z,5.61
2022-09-23T04:30:19.634Z,5.55
2022-09-23T04:33:27.995Z,5.48
2022-09-23T04:36:30.396Z,5.61
2022-09-23T04:39:32.801Z,5.58
2022-09-23T04:42:34.986Z,5.68
2022-09-23T04:45:37.165Z,5.75
2022-09-23T04:48:41.468Z,5.72
2022-09-23T04:51:43.757Z,5.80
2022-09-23T04:54:46.027Z,5.83
2022-09-23T04:57:48.298Z,5.85
2022-09-23T05:00:50.612Z,5.93
2022-09-23T05:03:56.337Z,5.96
2022-09-23T05:07:02.920Z,5.98
2022-09-23T05:10:06.296Z,6.09
2022-09-23T05:13:09.216Z,6.20
2022-09-23T05:16:12.550Z,6.27
2022-09-23T05:19:15.475Z,6.23
2022-09-23T05:22:17.623Z,6.34
2022-09-23T05:25:19.796Z,6.43
2022-09-23T05:28:22.258Z,6.60
2022-09-23T05:31:26.937Z,7.03
2022-09-23T05:34:29.109Z,7.43
2022-09-23T05:37:33.076Z,7.87
2022-09-23T05:40:37.528Z,8.09
2022-09-23T05:43:41.012Z,8.63
2022-09-23T05:46:43.266Z,9.20
2022-09-23T05:49:59.011Z,9.65
2022-09-23T05:53:02.016Z,10.20
2022-09-23T05:59:12.296Z,10.94
2022-09-23T06:02:15.197Z,11.32
2022-09-23T06:05:17.553Z,11.67
2022-09-23T06:08:20.286Z,12.30
2022-09-23T06:11:22.562Z,12.72
2022-09-23T06:14:25.647Z,12.95
2022-09-23T06:17:27.988Z,13.42
2022-09-23T06:20:33.576Z,13.95
2022-09-23T06:23:38.955Z,14.42
2022-09-23T06:26:45.259Z,14.76
2022-09-23T06:29:47.432Z,15.18
2022-09-23T06:32:57.137Z,15.69
2022-09-23T06:36:05.234Z,15.90
2022-09-23T06:39:09.800Z,16.27
2022-09-23T06:42:15.941Z,16.33
2022-09-23T06:45:21.431Z,17.12
2022-09-23T06:48:24.785Z,17.50
2022-09-23T06:51:26.937Z,17.81
2022-09-23T06:54:30.778Z,18.27
2022-09-23T06:57:33.292Z,18.55
2022-09-23T07:00:40.788Z,19.07
2022-09-23T07:03:44.699Z,19.33
2022-09-23T07:06:47.852Z,19.67
2022-09-23T07:09:50.191Z,19.99
2022-09-23T07:12:53.145Z,20.42
2022-09-23T07:15:58.372Z,20.47
2022-09-23T07:19:03.449Z,20.74
2022-09-23T07:22:05.744Z,20.97
2022-09-23T07:25:08.040Z,20.97
2022-09-23T07:28:10.428Z,20.94
2022-09-23T07:31:19.620Z,20.72
2022-09-23T07:34:27.619Z,20.81
2022-09-23T07:37:29.782Z,21.01
2022-09-23T07:40:32.005Z,21.00
2022-09-23T07:43:34.778Z,21.20
2022-09-23T07:46:38.093Z,21.32
2022-09-23T07:49:42.547Z,21.38
2022-09-23T07:52:47.213Z,20.87
2022-09-23T07:56:06.442Z,19.49
2022-09-23T07:59:15.606Z,18.79
2022-09-23T08:02:24.826Z,18.22
2022-09-23T08:05:27.127Z,17.59
2022-09-23T08:08:30.728Z,17.69
2022-09-23T08:11:38.579Z,17.04
2022-09-23T08:14:43.975Z,16.13
2022-09-23T08:17:46.417Z,15.70
2022-09-23T08:20:48.698Z,15.34
2022-09-23T08:23:55.727Z,14.87
2022-09-23T08:27:07.076Z,15.06
2022-09-23T08:30:14.108Z,15.57
2022-09-23T08:33:23.343Z,15.12
2022-09-23T08:36:31.099Z,15.11
2022-09-23T08:39:38.880Z,15.07
2022-09-23T08:42:46.818Z,15.83
2022-09-23T08:45:51.517Z,17.39
2022-09-23T08:48:55.081Z,18.20
2022-09-23T08:52:08.349Z,19.65
2022-09-23T08:55:13.730Z,20.42
2022-09-23T08:58:35.193Z,21.95
2022-09-23T09:01:48.208Z,21.79
2022-09-23T09:04:57.005Z,22.50
2022-09-23T09:08:04.663Z,22.74
2022-09-23T09:11:14.796Z,21.97
2022-09-23T09:14:25.559Z,20.11
2022-09-23T09:17:46.980Z,19.72
2022-09-23T09:21:16.632Z,19.22
2022-09-23T09:24:38.791Z,19.20
2022-09-23T09:27:41.992Z,18.86
2022-09-23T09:30:48.292Z,17.87
2022-09-23T09:34:06.368Z,17.81
2022-09-23T09:37:27.540Z,18.10
2022-09-23T09:40:33.024Z,18.11
2022-09-23T09:43:38.863Z,17.94
2022-09-23T09:46:56.865Z,17.79
2022-09-23T09:50:07.894Z,17.93
2022-09-23T09:53:24.756Z,17.83
2022-09-23T09:56:37.207Z,17.70
2022-09-23T09:59:44.132Z,18.05
2022-09-23T10:02:47.383Z,18.71
2022-09-23T10:05:52.231Z,19.23
2022-09-23T10:09:18.962Z,19.17
2022-09-23T10:12:25.339Z,18.98
2022-09-23T10:15:44.975Z,19.13
2022-09-23T10:18:47.278Z,19.51
2022-09-23T10:21:56.947Z,20.30
2022-09-23T10:25:20.906Z,20.18
2022-09-23T10:28:38.572Z,20.76
2022-09-23T10:31:41.756Z,23.39
2022-09-23T10:34:46.730Z,24.86
2022-09-23T10:37:51.783Z,26.35
2022-09-23T10:41:14.070Z,27.06
2022-09-23T10:45:16.220Z,26.87
2022-09-23T10:48:24.728Z,27.84
2022-09-23T10:51:43.678Z,26.49
2022-09-23T10:54:59.306Z,27.14
2022-09-23T10:58:27.631Z,28.52
2022-09-23T11:02:02.291Z,26.90
2022-09-23T11:05:36.078Z,25.44
2022-09-23T11:08:53.577Z,25.41
2022-09-23T11:12:06.779Z,27.82
2022-09-23T11:15:37.618Z,29.05
2022-09-23T11:19:32.404Z,29.86
2022-09-23T11:22:55.799Z,27.11
2022-09-23T11:26:13.424Z,28.10
2022-09-23T11:29:30.140Z,28.09
2022-09-23T11:32:47.997Z,27.92
2022-09-23T11:36:10.757Z,26.04
2022-09-23T11:39:22.456Z,29.74
2022-09-23T11:42:32.929Z,30.54
2022-09-23T11:45:40.589Z,31.26
2022-09-23T11:49:06.414Z,30.12
2022-09-23T11:52:11.784Z,31.63
2022-09-23T11:55:23.027Z,32.29
2022-09-23T11:58:35.390Z,30.84
2022-09-23T12:01:53.354Z,29.63
2022-09-23T12:05:03.402Z,27.62
2022-09-23T12:08:25.563Z,29.16
2022-09-23T12:11:59.089Z,32.29
2022-09-23T12:15:30.910Z,28.32
2022-09-23T12:18:47.577Z,27.86
2022-09-23T12:22:05.093Z,27.03
2022-09-23T12:25:32.005Z,24.90
2022-09-23T12:28:39.551Z,26.26
2022-09-23T12:31:46.710Z,24.92
2022-09-23T12:34:52.120Z,23.60
2022-09-23T12:37:54.516Z,22.09
2022-09-23T12:40:57.179Z,21.01
2022-09-23T12:44:15.622Z,22.81
2022-09-23T12:47:28.921Z,26.72
2022-09-23T12:50:50.800Z,25.84
2022-09-23T12:54:21.680Z,26.26
2022-09-23T12:57:35.810Z,30.31
2022-09-23T13:00:38.016Z,32.03
2022-09-23T13:04:16.721Z,32.87
2022-09-23T13:07:32.203Z,33.51
2022-09-23T13:10:44.125Z,33.57
2022-09-23T13:13:49.045Z,34.41
2022-09-23T13:16:51.682Z,31.73
2022-09-23T13:20:03.765Z,32.75
2022-09-23T13:23:27.343Z,33.06
2022-09-23T13:26:32.374Z,33.34
2022-09-23T13:29:44.160Z,34.36
2022-09-23T13:32:52.185Z,33.91
2022-09-23T13:36:00.819Z,33.54
2022-09-23T13:39:16.704Z,34.22
2022-09-23T13:42:28.644Z,34.52
2022-09-23T13:45:32.216Z,34.56
2022-09-23T13:48:34.518Z,34.35
2022-09-23T13:51:36.822Z,34.16
2022-09-23T13:54:51.088Z,34.78
2022-09-23T13:58:05.489Z,34.63
2022-09-23T14:01:10.266Z,34.25
2022-09-23T14:04:25.579Z,33.58
2022-09-23T14:07:27.854Z,33.12
2022-09-23T14:10:31.183Z,32.49
2022-09-23T14:13:43.519Z,32.95
2022-09-23T14:16:48.979Z,32.32
2022-09-23T14:19:51.569Z,31.51
2022-09-23T14:23:14.765Z,29.49
2022-09-23T14:26:18.164Z,27.73
2022-09-23T14:29:26.199Z,29.24
2022-09-23T14:32:29.925Z,29.22
2022-09-23T14:35:42.373Z,30.09
2022-09-23T14:38:50.967Z,29.21
2022-09-23T14:41:53.291Z,29.73
2022-09-23T14:44:56.065Z,29.14
2022-09-23T14:48:12.824Z,28.63
2022-09-23T14:51:17.219Z,29.05
2022-09-23T14:54:39.425Z,29.51
2022-09-23T14:57:42.913Z,29.29
2022-09-23T15:00:59.963Z,26.59
2022-09-23T15:04:21.781Z,24.95
2022-09-23T15:07:24.104Z,23.33
2022-09-23T15:10:30.195Z,22.09
2022-09-23T15:13:41.862Z,20.86
2022-09-23T15:16:46.152Z,19.95
2022-09-23T15:19:56.745Z,20.63
2022-09-23T15:22:59.034Z,22.00
2022-09-23T15:26:16.939Z,23.45
2022-09-23T15:29:19.197Z,23.57
2022-09-23T15:32:22.099Z,22.34
2022-09-23T15:35:26.623Z,21.45
2022-09-23T15:38:29.072Z,20.11
2022-09-23T15:41:33.573Z,19.60
2022-09-23T15:44:36.851Z,19.00
2022-09-23T15:47:39.125Z,18.96
2022-09-23T15:50:42.827Z,18.56
2022-09-23T15:53:44.993Z,17.91
2022-09-23T15:56:47.873Z,17.63
2022-09-23T15:59:50.032Z,17.30
2022-09-23T16:02:52.505Z,17.28
2022-09-23T16:06:00.669Z,17.43
2022-09-23T16:09:03.388Z,17.29
2022-09-23T16:12:09.201Z,16.95
2022-09-23T16:15:18.015Z,16.74
2022-09-23T16:18:20.239Z,16.61
2022-09-23T16:21:25.841Z,16.29
2022-09-23T16:24:29.221Z,16.09
2022-09-23T16:27:31.515Z,15.93
2022-09-23T16:30:34.396Z,15.69
2022-09-23T16:33:36.661Z,15.51
2022-09-23T16:36:43.319Z,15.34
2022-09-23T16:39:45.570Z,15.12
2022-09-23T16:42:48.779Z,15.11
2022-09-23T16:45:51.031Z,14.98
2022-09-23T16:48:53.586Z,14.70
2022-09-23T16:51:56.276Z,14.65
2022-09-23T16:54:58.492Z,14.53
2022-09-23T16:58:00.719Z,14.42
2022-09-23T17:01:22.297Z,14.26
2022-09-23T17:04:24.752Z,14.06
2022-09-23T17:07:27.108Z,13.79
2022-09-23T17:10:29.616Z,13.39
2022-09-23T17:13:32.521Z,13.30
2022-09-23T17:16:35.254Z,13.30
2022-09-23T17:19:38.344Z,13.20
2022-09-23T17:22:41.892Z,13.32
2022-09-23T17:25:48.118Z,13.20
2022-09-23T17:28:51.856Z,13.23
2022-09-23T17:31:54.356Z,13.27
2022-09-23T17:34:57.444Z,13.26
2022-09-23T17:37:59.613Z,13.12
2022-09-23T17:41:02.203Z,13.00
2022-09-23T17:44:04.783Z,12.79
2022-09-23T17:47:06.982Z,12.88
2022-09-23T17:50:09.395Z,12.83
2022-09-23T17:53:11.593Z,12.75
2022-09-23T17:56:19.469Z,12.45
2022-09-23T17:59:21.671Z,12.37
2022-09-23T18:02:23.886Z,11.95
2022-09-23T18:05:26.127Z,12.07
2022-09-23T18:08:30.809Z,11.79
2022-09-23T18:11:44.339Z,11.52
2022-09-23T18:14:47.762Z,11.18
2022-09-23T18:17:49.970Z,11.04
2022-09-23T18:20:52.128Z,11.05
2022-09-23T18:23:57.309Z,10.98
2022-09-23T18:27:06.480Z,11.15
2022-09-23T18:30:09.354Z,11.07
2022-09-23T18:33:11.508Z,10.95
2022-09-23T18:36:14.310Z,11.09
2022-09-23T18:39:17.228Z,11.05
2022-09-23T18:42:20.433Z,11.15
2022-09-23T18:45:22.633Z,11.21
2022-09-23T18:48:44.157Z,11.15
2022-09-23T18:52:03.664Z,11.11
2022-09-23T18:55:06.522Z,10.85
2022-09-23T18:58:10.388Z,10.84
2022-09-23T19:01:12.769Z,10.74
2022-09-23T19:04:17.545Z,10.64
2022-09-23T19:07:19.745Z,10.37
2022-09-23T19:10:22.187Z,10.33
2022-09-23T19:13:24.442Z,10.50
2022-09-23T19:16:27.249Z,10.08
2022-09-23T19:19:30.177Z,10.12
2022-09-23T19:22:32.773Z,10.09
2022-09-23T19:25:36.359Z,10.05
2022-09-23T19:28:39.189Z,10.23
2022-09-23T19:31:42.190Z,10.17
2022-09-23T19:34:45.797Z,10.13
2022-09-23T19:37:48.210Z,10.12
2022-09-23T19:40:52.165Z,10.09
2022-09-23T19:43:55.496Z,10.08
2022-09-23T19:46:57.763Z,9.82
2022-09-23T19:50:00.040Z,9.78
2022-09-23T19:53:04.780Z,9.67
2022-09-23T19:56:07.080Z,9.71
2022-09-23T19:59:09.489Z,9.72
2022-09-23T20:02:12.657Z,9.61
2022-09-23T20:05:19.708Z,9.59
2022-09-23T20:08:23.801Z,9.71
2022-09-23T20:11:28.552Z,9.67
2022-09-23T20:14:31.570Z,9.81
2022-09-23T20:17:33.756Z,9.71
2022-09-23T20:20:36.552Z,9.58
2022-09-23T20:23:38.737Z,9.51
2022-09-23T20:27:19.359Z,9.47
2022-09-23T20:30:21.605Z,9.51
2022-09-23T20:33:23.811Z,9.49
2022-09-23T20:36:29.535Z,9.34
2022-09-23T20:39:31.863Z,9.31
2022-09-23T20:42:35.090Z,9.20
2022-09-23T20:45:50.210Z,9.18
2022-09-23T20:48:54.142Z,9.17
2022-09-23T20:51:56.346Z,9.21
2022-09-23T20:54:58.665Z,9.37
2022-09-23T20:58:02.233Z,9.32
2022-09-23T21:01:10.481Z,9.21
2022-09-23T21:04:12.848Z,9.03
2022-09-23T21:07:15.012Z,8.87
2022-09-23T21:10:17.210Z,8.83
2022-09-23T21:13:19.372Z,8.80
2022-09-23T21:16:22.929Z,8.81
2022-09-23T21:19:25.316Z,9.03
2022-09-23T21:22:27.512Z,8.94
2022-09-23T21:25:30.628Z,8.87
2022-09-23T21:28:40.994Z,8.80
2022-09-23T21:31:43.212Z,8.81
2022-09-23T21:34:45.795Z,8.80
2022-09-23T21:37:48.093Z,8.66
2022-09-23T21:40:58.414Z,8.55
2022-09-23T21:44:04.634Z,8.52
2022-09-23T21:47:07.084Z,8.42
2022-09-23T21:50:09.642Z,8.42
2022-09-23T21:53:11.844Z,8.36
2022-09-23T21:56:20.449Z,8.39
2022-09-23T21:59:23.285Z,8.28
2022-09-23T22:02:25.482Z,8.36
2022-09-23T22:05:27.678Z,8.34
2022-09-23T22:08:36.864Z,8.22
2022-09-23T22:12:02.876Z,8.11
2022-09-23T22:15:07.094Z,8.02
2022-09-23T22:18:09.288Z,8.09
2022-09-23T22:21:11.608Z,8.16
2022-09-23T22:24:13.808Z,8.16
2022-09-23T22:27:18.511Z,8.08
2022-09-23T22:30:38.917Z,8.07
2022-09-23T22:33:41.096Z,8.02
2022-09-23T22:36:43.307Z,7.95
2022-09-23T22:39:45.892Z,8.18
2022-09-23T22:42:48.730Z,8.07
2022-09-23T22:45:51.563Z,8.07
2022-09-23T22:48:53.851Z,7.94
2022-09-23T22:51:56.014Z,7.97
2022-09-23T22:54:58.287Z,7.95
2022-09-23T22:58:15.319Z,7.98
2022-09-23T23:01:23.828Z,7.95
2022-09-23T23:04:26.062Z,7.87
2022-09-23T23:07:28.260Z,7.84
2022-09-23T23:10:31.141Z,7.75
2022-09-23T23:13:33.943Z,7.97
2022-09-23T23:16:36.266Z,8.12
2022-09-23T23:19:38.632Z,8.01
2022-09-23T23:22:40.863Z,7.85
2022-09-23T23:25:43.056Z,7.85
2022-09-23T23:28:45.769Z,8.05
2022-09-23T23:31:48.591Z,8.18
2022-09-23T23:34:50.827Z,8.21
2022-09-23T23:37:53.016Z,8.25
2022-09-23T23:40:56.333Z,8.04
2022-09-23T23:44:00.253Z,7.87
2022-09-23T23:47:02.608Z,7.80
2022-09-23T23:50:05.188Z,7.70
2022-09-23T23:53:09.081Z,7.62
2022-09-23T23:56:19.597Z,7.66
2022-09-23T23:59:21.866Z,7.64
